createdAt,value
2022-11-04T00:03:23.675Z,39.20
2022-11-04T00:08:28.869Z,33.45
2022-11-04T00:13:34.962Z,39.37
2022-11-04T00:18:39.827Z,35.17
2022-11-04T00:24:07.491Z,34.92
2022-11-04T00:29:12.795Z,43.33
2022-11-04T00:34:17.629Z,42.03
2022-11-04T00:39:22.385Z,37.70
2022-11-04T00:44:28.155Z,42.38
2022-11-04T00:49:33.627Z,27.50
2022-11-04T00:54:38.782Z,36.93
2022-11-04T00:59:44.577Z,36.13
2022-11-04T01:04:52.667Z,38.50
2022-11-04T01:09:57.906Z,27.53
2022-11-04T01:15:02.919Z,33.63
2022-11-04T01:20:07.951Z,27.38
2022-11-04T01:25:13.182Z,28.60
2022-11-04T01:30:18.611Z,37.63
2022-11-04T01:35:23.553Z,30.30
2022-11-04T01:40:29.093Z,35.67
2022-11-04T01:45:34.602Z,36.42
2022-11-04T01:50:39.921Z,33.45
2022-11-04T01:55:50.311Z,44.73
2022-11-04T02:00:55.296Z,37.83
2022-11-04T02:06:01.139Z,39.47
2022-11-04T02:11:06.543Z,39.03
2022-11-04T02:16:17.977Z,34.00
2022-11-04T02:21:22.977Z,32.63
2022-11-04T02:26:56.445Z,28.70
2022-11-04T02:32:14.709Z,29.88
2022-11-04T02:37:29.344Z,36.67
2022-11-04T02:42:37.845Z,31.60
2022-11-04T02:47:45.226Z,30.42
2022-11-04T02:52:51.487Z,46.17
2022-11-04T02:57:59.362Z,33.33
2022-11-04T03:03:08.766Z,32.72
2022-11-04T03:08:20.043Z,23.55
2022-11-04T03:13:31.565Z,32.78
2022-11-04T03:18:43.547Z,33.88
2022-11-04T03:23:48.420Z,25.30
2022-11-04T03:29:02.844Z,34.70
2022-11-04T03:34:08.823Z,30.33
2022-11-04T03:39:13.993Z,36.10
2022-11-04T03:44:18.951Z,25.33
2022-11-04T03:49:24.920Z,32.33
2022-11-04T03:54:34.022Z,25.98
2022-11-04T03:59:55.273Z,38.00
2022-11-04T04:05:05.004Z,18.38
2022-11-04T04:10:32.814Z,26.13
2022-11-04T04:15:45.298Z,21.90
2022-11-04T04:20:51.897Z,30.00
2022-11-04T04:26:16.641Z,26.77
2022-11-04T04:31:41.329Z,32.33
2022-11-04T04:37:06.276Z,31.45
2022-11-04T04:42:31.075Z,29.35
2022-11-04T04:47:39.593Z,29.65
2022-11-04T04:52:48.242Z,16.88
2022-11-04T04:57:53.218Z,26.40
2022-11-04T05:02:58.390Z,23.97
2022-11-04T05:08:07.860Z,26.70
2022-11-04T05:13:33.507Z,22.65
2022-11-04T05:18:38.861Z,21.48
2022-11-04T05:23:43.928Z,21.03
2022-11-04T05:28:49.251Z,19.40
2022-11-04T05:33:55.632Z,21.70
2022-11-04T05:39:00.389Z,18.02
2022-11-04T05:44:07.835Z,17.17
2022-11-04T05:49:12.671Z,16.17
2022-11-04T05:54:17.912Z,17.08
2022-11-04T05:59:24.947Z,22.58
2022-11-04T06:04:32.679Z,19.25
2022-11-04T06:09:40.424Z,16.95
2022-11-04T06:14:46.370Z,14.70
2022-11-04T06:19:52.278Z,14.85
2022-11-04T06:24:57.708Z,21.48
2022-11-04T06:30:03.625Z,16.55
2022-11-04T06:35:10.115Z,15.82
2022-11-04T06:40:15.007Z,14.73
2022-11-04T06:45:20.438Z,18.00
2022-11-04T06:50:25.646Z,19.95
2022-11-04T06:55:30.800Z,18.45
2022-11-04T07:00:36.213Z,18.88
2022-11-04T07:05:44.592Z,18.70
2022-11-04T07:15:57.404Z,15.23
2022-11-04T07:21:07.180Z,14.93
2022-11-04T07:26:15.882Z,15.93
2022-11-04T07:31:21.317Z,14.68
2022-11-04T07:36:26.716Z,16.08
2022-11-04T07:46:40.123Z,15.73
2022-11-04T07:51:45.634Z,17.90
2022-11-04T07:56:50.644Z,16.63
2022-11-04T08:01:56.182Z,16.15
2022-11-04T08:07:03.338Z,16.77
2022-11-04T08:12:11.528Z,15.25
2022-11-04T08:17:16.428Z,15.75
2022-11-04T08:22:21.591Z,16.60
2022-11-04T08:27:26.662Z,16.13
2022-11-04T08:32:31.976Z,16.40
2022-11-04T08:37:37.144Z,16.00
2022-11-04T08:42:42.383Z,16.20
2022-11-04T08:47:47.277Z,14.48
2022-11-04T08:52:51.982Z,16.98
2022-11-04T08:57:57.174Z,15.50
2022-11-04T09:03:02.781Z,16.60
2022-11-04T09:08:08.687Z,15.90
2022-11-04T09:13:14.460Z,15.57
2022-11-04T09:23:24.251Z,15.85
2022-11-04T09:28:29.759Z,16.77
2022-11-04T09:33:34.855Z,18.17
2022-11-04T09:38:40.461Z,16.45
2022-11-04T09:43:45.891Z,17.38
2022-11-04T09:48:52.834Z,19.05
2022-11-04T09:54:11.447Z,19.42
2022-11-04T09:59:19.901Z,17.05
2022-11-04T10:04:37.525Z,15.82
2022-11-04T10:09:47.254Z,19.98
2022-11-04T10:15:15.391Z,20.40
2022-11-04T10:20:23.979Z,20.08
2022-11-04T10:25:36.785Z,15.85
2022-11-04T10:30:43.518Z,19.55
2022-11-04T10:35:54.527Z,20.10
2022-11-04T10:41:03.104Z,16.15
2022-11-04T10:46:24.662Z,16.73
2022-11-04T10:51:29.815Z,17.95
2022-11-04T10:56:38.553Z,17.97
2022-11-04T11:01:51.886Z,19.30
2022-11-04T11:06:58.659Z,19.73
2022-11-04T11:12:36.274Z,21.20
2022-11-04T11:17:35.753Z,21.10
2022-11-04T11:22:42.772Z,22.10
2022-11-04T11:27:50.793Z,21.88
2022-11-04T11:33:29.063Z,22.27
2022-11-04T11:38:36.024Z,22.90
2022-11-04T11:43:43.815Z,27.92
2022-11-04T11:48:54.582Z,29.75
2022-11-04T11:54:05.571Z,25.15
2022-11-04T12:10:50.323Z,47.33
2022-11-04T12:16:11.787Z,44.30
2022-11-04T12:21:20.335Z,37.85
2022-11-04T12:26:37.398Z,36.55
2022-11-04T12:31:51.449Z,39.70
2022-11-04T12:36:57.051Z,34.20
2022-11-04T12:42:22.927Z,33.75
2022-11-04T12:47:45.384Z,36.05
2022-11-04T12:53:00.021Z,36.10
2022-11-04T12:58:11.056Z,38.72
2022-11-04T13:03:34.925Z,41.85
2022-11-04T13:08:40.125Z,52.20
2022-11-04T13:13:45.452Z,53.20
2022-11-04T13:18:51.696Z,52.20
2022-11-04T13:24:06.816Z,51.65
2022-11-04T13:29:22.510Z,54.97
2022-11-04T13:34:45.778Z,65.55
2022-11-04T13:39:55.825Z,63.20
2022-11-04T13:45:06.916Z,80.75
2022-11-04T13:50:32.075Z,60.20
2022-11-04T13:55:37.917Z,80.75
2022-11-04T14:05:48.608Z,63.08
2022-11-04T14:10:53.840Z,57.97
2022-11-04T14:16:18.855Z,61.63
2022-11-04T14:21:25.436Z,57.88
2022-11-04T14:26:52.105Z,57.63
2022-11-04T14:32:01.676Z,53.10
2022-11-04T14:37:10.947Z,48.97
2022-11-04T14:42:17.831Z,49.22
2022-11-04T14:47:23.073Z,48.03
2022-11-04T14:52:42.763Z,46.97
2022-11-04T14:57:49.731Z,46.28
2022-11-04T15:03:04.674Z,45.00
2022-11-04T15:08:28.352Z,45.40
2022-11-04T15:13:47.330Z,26.38
2022-11-04T15:18:53.747Z,45.20
2022-11-04T15:23:59.218Z,36.25
2022-11-04T15:34:14.631Z,40.05
2022-11-04T15:39:19.921Z,41.58
2022-11-04T15:44:29.994Z,44.77
2022-11-04T15:49:36.604Z,38.45
2022-11-04T15:54:45.743Z,41.65
2022-11-04T15:59:57.597Z,44.05
2022-11-04T16:05:05.997Z,47.63
2022-11-04T16:10:31.504Z,45.43
2022-11-04T16:15:52.752Z,51.17
2022-11-04T16:20:58.428Z,46.78
2022-11-04T16:31:28.364Z,47.25
2022-11-04T16:36:35.932Z,43.58
2022-11-04T16:41:48.812Z,45.67
2022-11-04T16:46:54.418Z,46.47
2022-11-04T16:52:04.364Z,28.92
2022-11-04T16:57:12.923Z,38.95
2022-11-04T17:02:29.394Z,41.60
2022-11-04T17:07:51.541Z,45.58
2022-11-04T17:13:07.301Z,42.80
2022-11-04T17:18:19.031Z,39.40
2022-11-04T17:23:24.349Z,39.10
2022-11-04T17:28:29.260Z,39.50
2022-11-04T17:33:37.076Z,40.63
2022-11-04T17:38:42.454Z,40.85
2022-11-04T17:44:03.071Z,35.03
2022-11-04T17:49:11.552Z,34.33
2022-11-04T17:54:16.821Z,41.30
2022-11-04T17:59:22.019Z,38.47
2022-11-04T18:04:26.973Z,41.23
2022-11-04T18:09:32.548Z,38.78
2022-11-04T18:14:37.558Z,40.78
2022-11-04T18:19:42.463Z,40.17
2022-11-04T18:24:48.954Z,39.38
2022-11-04T18:29:54.337Z,40.25
2022-11-04T18:34:59.452Z,37.28
2022-11-04T18:40:04.365Z,40.07
2022-11-04T18:45:09.882Z,39.63
2022-11-04T18:50:15.088Z,40.22
2022-11-04T18:55:19.985Z,40.83
2022-11-04T19:00:25.529Z,36.90
2022-11-04T19:05:31.194Z,37.58
2022-11-04T19:10:57.885Z,34.83
2022-11-04T19:16:08.871Z,35.78
2022-11-04T19:21:14.695Z,34.90
2022-11-04T19:31:26.864Z,35.70
2022-11-04T19:36:33.271Z,36.38
2022-11-04T19:41:57.045Z,35.90
2022-11-04T19:47:01.897Z,34.22
2022-11-04T19:52:07.214Z,34.70
2022-11-04T19:57:12.036Z,35.10
2022-11-04T20:02:17.702Z,33.30
2022-11-04T20:07:23.103Z,34.65
2022-11-04T20:12:46.792Z,32.70
2022-11-04T20:17:51.735Z,34.60
2022-11-04T20:22:56.933Z,34.67
2022-11-04T20:28:03.442Z,34.63
2022-11-04T20:33:08.436Z,33.65
2022-11-04T20:38:13.433Z,33.78
2022-11-04T20:43:18.610Z,33.27
2022-11-04T20:48:23.743Z,32.43
2022-11-04T20:53:28.603Z,33.43
2022-11-04T20:58:33.492Z,33.08
2022-11-04T21:03:38.609Z,32.40
2022-11-04T21:08:43.468Z,33.07
2022-11-04T21:13:49.464Z,33.42
2022-11-04T21:24:02.247Z,35.85
2022-11-04T21:29:08.413Z,33.95
2022-11-04T21:39:17.970Z,33.20
2022-11-04T21:44:25.059Z,35.17
2022-11-04T21:49:29.871Z,32.92
2022-11-04T21:54:34.727Z,40.17
2022-11-04T21:59:39.922Z,39.15
2022-11-04T22:04:45.315Z,55.20
2022-11-04T22:09:50.207Z,71.53
2022-11-04T22:14:55.312Z,90.93
2022-11-04T22:20:00.112Z,88.17
2022-11-04T22:25:05.320Z,87.97
2022-11-04T22:30:11.002Z,59.67
2022-11-04T22:40:22.390Z,90.18
2022-11-04T22:45:27.571Z,86.57
2022-11-04T22:50:32.815Z,89.23
2022-11-04T22:55:39.498Z,95.83
2022-11-04T23:00:44.460Z,91.57
2022-11-04T23:05:49.695Z,99.67
2022-11-04T23:11:17.537Z,74.70
2022-11-04T23:16:42.930Z,89.47
2022-11-04T23:22:06.640Z,96.38
2022-11-04T23:27:11.856Z,86.65
2022-11-04T23:32:21.963Z,92.37
2022-11-04T23:37:31.175Z,87.32
2022-11-04T23:42:36.217Z,89.60
2022-11-04T23:48:04.904Z,82.87
2022-11-04T23:53:32.149Z,85.50
2022-11-04T23:58:56.268Z,79.18
